Wetterdaten: Woche 21.01.13 - 27.01.13 (KW4)
Datum Zeit Temp. Aussen +5cm Feuchte Auss BlattFeu 1 Luftdruck Regen Sonnenschein UV Solar Windben
21.01.2013 00:00 -1,3 C -2,7 C 97 % 14 lf 994,9 hPa 0,0 l/m 0,00 h 0,0 UV-I 0 W/m 1,5 km/h (1 Bft)
21.01.2013 01:00 -1,3 C -2,7 C 97 % 14 lf 995,1 hPa 0,0 l/m 0,00 h 0,0 UV-I 0 W/m 5,4 km/h (1 Bft)
21.01.2013 02:00 -1,2 C -2,2 C 98 % 15 lf 995,3 hPa 0,0 l/m 0,00 h 0,0 UV-I 0 W/m 6,2 km/h (2 Bft)
21.01.2013 03:00 -1,1 C -2,1 C 98 % 15 lf 995,9 hPa 0,0 l/m 0,00 h 0,0 UV-I 0 W/m 0,3 km/h (0 Bft)
21.01.2013 04:00 -1,1 C -2,2 C 98 % 15 lf 996,2 hPa 0,0 l/m 0,00 h 0,0 UV-I 0 W/m 0,0 km/h (0 Bft)
21.01.2013 05:00 -1,3 C -2,8 C 98 % 12 lf 996,3 hPa 0,0 l/m 0,00 h 0,0 UV-I 0 W/m 0,0 km/h (0 Bft)
21.01.2013 06:00 -1,6 C -2,9 C 98 % 12 lf 996,6 hPa 0,4 l/m 0,00 h 0,0 UV-I 0 W/m 0,0 km/h (0 Bft)
21.01.2013 07:00 -1,5 C -2,8 C 98 % 12 lf 997,0 hPa 2,0 l/m 0,00 h 0,0 UV-I 0 W/m 0,1 km/h (0 Bft)
21.01.2013 08:00 -1,3 C -2,7 C 99 % 13 lf 997,2 hPa 0,0 l/m 0,00 h 0,0 UV-I 0 W/m 0,6 km/h (0 Bft)
21.01.2013 09:00 -1,2 C -2,2 C 99 % 15 lf 997,5 hPa 0,2 l/m 0,00 h 0,0 UV-I 5 W/m 0,5 km/h (0 Bft)
21.01.2013 10:00 -0,9 C -1,6 C 99 % 15 lf 997,6 hPa 0,0 l/m 0,00 h 0,0 UV-I 12 W/m 2,5 km/h (1 Bft)
21.01.2013 11:00 -0,4 C -1,0 C 99 % 15 lf 997,8 hPa 0,0 l/m 0,00 h 0,0 UV-I 20 W/m 4,1 km/h (1 Bft)
21.01.2013 12:00 0,1 C -1,0 C 99 % 15 lf 997,6 hPa 0,0 l/m 0,00 h 0,0 UV-I 35 W/m 2,6 km/h (1 Bft)
21.01.2013 13:00 0,3 C -1,0 C 99 % 15 lf 997,6 hPa 0,0 l/m 0,00 h 0,0 UV-I 68 W/m 6,4 km/h (2 Bft)
21.01.2013 14:00 0,6 C -0,4 C 98 % 15 lf 997,5 hPa 0,0 l/m 0,00 h 0,0 UV-I 76 W/m 2,8 km/h (1 Bft)
21.01.2013 15:00 0,6 C -0,6 C 97 % 15 lf 997,6 hPa 0,0 l/m 0,00 h 0,0 UV-I 46 W/m 1,1 km/h (1 Bft)
21.01.2013 16:00 0,3 C -1,0 C 96 % 15 lf 998,0 hPa 0,0 l/m 0,00 h 0,0 UV-I 17 W/m 2,1 km/h (1 Bft)
21.01.2013 17:00 0,0 C -1,3 C 97 % 14 lf 998,4 hPa 0,0 l/m 0,00 h 0,0 UV-I 0 W/m 0,1 km/h (0 Bft)
21.01.2013 18:00 -0,2 C -1,6 C 97 % 11 lf 998,6 hPa 0,0 l/m 0,00 h 0,0 UV-I 0 W/m 0,0 km/h (0 Bft)
21.01.2013 19:00 -0,5 C -1,9 C 97 % 5 lf 999,1 hPa 0,0 l/m 0,00 h 0,0 UV-I 0 W/m 0,2 km/h (0 Bft)
21.01.2013 20:00 -0,8 C -2,1 C 97 % 3 lf 999,4 hPa 0,0 l/m 0,00 h 0,0 UV-I 0 W/m 0,3 km/h (0 Bft)
21.01.2013 21:00 -1,1 C -2,3 C 97 % 3 lf 999,7 hPa 0,0 l/m 0,00 h 0,0 UV-I 0 W/m 0,1 km/h (0 Bft)
21.01.2013 22:00 -1,2 C -2,7 C 97 % 3 lf 1000,1 hPa 0,0 l/m 0,00 h 0,0 UV-I 0 W/m 0,0 km/h (0 Bft)
21.01.2013 23:00 -1,5 C -2,7 C 97 % 2 lf 1000,4 hPa 0,0 l/m 0,00 h 0,0 UV-I 0 W/m 0,0 km/h (0 Bft)
22.01.2013 00:00 -1,8 C -3,2 C 97 % 2 lf 1000,8 hPa 0,0 l/m 0,00 h 0,0 UV-I 0 W/m 0,2 km/h (0 Bft)
22.01.2013 01:00 -2,0 C -3,2 C 97 % 2 lf 1001,1 hPa 0,0 l/m 0,00 h 0,0 UV-I 0 W/m 0,1 km/h (0 Bft)
22.01.2013 02:00 -2,2 C -3,2 C 97 % 2 lf 1001,4 hPa 0,0 l/m 0,00 h 0,0 UV-I 0 W/m 0,0 km/h (0 Bft)
22.01.2013 03:00 -2,2 C -3,2 C 97 % 2 lf 1001,5 hPa 0,0 l/m 0,00 h 0,0 UV-I 0 W/m 0,0 km/h (0 Bft)
22.01.2013 04:00 -2,2 C -3,2 C 97 % 1 lf 1001,7 hPa 0,0 l/m 0,00 h 0,0 UV-I 0 W/m 0,0 km/h (0 Bft)
22.01.2013 05:00 -2,3 C -3,2 C 97 % 1 lf 1002,0 hPa 0,0 l/m 0,00 h 0,0 UV-I 0 W/m 0,0 km/h (0 Bft)
22.01.2013 06:00 -2,4 C -3,4 C 97 % 1 lf 1002,3 hPa 0,0 l/m 0,00 h 0,0 UV-I 0 W/m 0,0 km/h (0 Bft)
22.01.2013 07:00 -2,5 C -3,8 C 98 % 1 lf 1002,6 hPa 0,0 l/m 0,00 h 0,0 UV-I 0 W/m 0,1 km/h (0 Bft)
22.01.2013 08:00 -2,4 C -3,2 C 97 % 1 lf 1003,3 hPa 0,0 l/m 0,00 h 0,0 UV-I 6 W/m 0,0 km/h (0 Bft)
22.01.2013 09:00 -2,4 C -3,2 C 97 % 1 lf 1004,2 hPa 0,0 l/m 0,00 h 0,0 UV-I 17 W/m 0,0 km/h (0 Bft)
22.01.2013 10:00 -2,3 C -2,9 C 97 % 2 lf 1004,6 hPa 0,0 l/m 0,00 h 0,0 UV-I 41 W/m 0,0 km/h (0 Bft)
22.01.2013 11:00 -1,8 C -1,9 C 97 % 5 lf 1005,0 hPa 0,0 l/m 0,00 h 0,0 UV-I 87 W/m 0,1 km/h (0 Bft)
22.01.2013 12:00 -0,8 C -0,7 C 96 % 15 lf 1004,8 hPa 0,0 l/m 0,00 h 0,0 UV-I 145 W/m 0,0 km/h (0 Bft)
22.01.2013 13:00 0,6 C 0,3 C 93 % 15 lf 1004,7 hPa 0,0 l/m 0,00 h 0,0 UV-I 150 W/m 0,0 km/h (0 Bft)
22.01.2013 14:00 0,6 C -0,3 C 90 % 15 lf 1004,6 hPa 0,0 l/m 0,00 h 0,0 UV-I 116 W/m 0,5 km/h (0 Bft)
22.01.2013 15:00 0,4 C -0,3 C 91 % 14 lf 1004,8 hPa 0,0 l/m 0,70 h 0,0 UV-I 109 W/m 0,3 km/h (0 Bft)
22.01.2013 16:00 -0,3 C -2,4 C 90 % 2 lf 1005,1 hPa 0,0 l/m 0,00 h 0,0 UV-I 25 W/m 0,7 km/h (0 Bft)
22.01.2013 17:00 -1,8 C -4,6 C 90 % 0 lf 1005,5 hPa 0,0 l/m 0,00 h 0,0 UV-I 6 W/m 0,0 km/h (0 Bft)
22.01.2013 18:00 -3,1 C -5,5 C 91 % 0 lf 1006,0 hPa 0,0 l/m 0,00 h 0,0 UV-I 0 W/m 0,0 km/h (0 Bft)
22.01.2013 19:00 -3,9 C -6,0 C 93 % 0 lf 1006,2 hPa 0,0 l/m 0,00 h 0,0 UV-I 0 W/m 0,0 km/h (0 Bft)
22.01.2013 20:00 -4,7 C -6,7 C 93 % 0 lf 1006,3 hPa 0,0 l/m 0,00 h 0,0 UV-I 0 W/m 0,0 km/h (0 Bft)
22.01.2013 21:00 -5,2 C -5,8 C 94 % 0 lf 1006,5 hPa 0,0 l/m 0,00 h 0,0 UV-I 0 W/m 0,0 km/h (0 Bft)
22.01.2013 22:00 -4,8 C -5,3 C 95 % 0 lf 1006,7 hPa 0,0 l/m 0,00 h 0,0 UV-I 0 W/m 0,0 km/h (0 Bft)
22.01.2013 23:00 -4,5 C -4,9 C 96 % 0 lf 1006,9 hPa 0,0 l/m 0,00 h 0,0 UV-I 0 W/m 0,0 km/h (0 Bft)
23.01.2013 00:00 -4,3 C -4,9 C 96 % 0 lf 1007,0 hPa 0,0 l/m 0,00 h 0,0 UV-I 0 W/m 0,0 km/h (0 Bft)
23.01.2013 01:00 -4,2 C -4,9 C 96 % 0 lf 1007,0 hPa 0,0 l/m 0,00 h 0,0 UV-I 0 W/m 0,0 km/h (0 Bft)
23.01.2013 02:00 -4,2 C -4,8 C 97 % 0 lf 1007,0 hPa 0,0 l/m 0,00 h 0,0 UV-I 0 W/m 0,0 km/h (0 Bft)
23.01.2013 03:00 -3,9 C -4,3 C 97 % 0 lf 1007,2 hPa 0,0 l/m 0,00 h 0,0 UV-I 0 W/m 0,0 km/h (0 Bft)
23.01.2013 04:00 -3,7 C -4,3 C 97 % 0 lf 1007,3 hPa 0,0 l/m 0,00 h 0,0 UV-I 0 W/m 0,0 km/h (0 Bft)
23.01.2013 05:00 -3,3 C -4,0 C 97 % 0 lf 1007,3 hPa 0,0 l/m 0,00 h 0,0 UV-I 0 W/m 0,0 km/h (0 Bft)
23.01.2013 06:00 -3,1 C -3,8 C 97 % 0 lf 1007,3 hPa 0,0 l/m 0,00 h 0,0 UV-I 0 W/m 0,1 km/h (0 Bft)
23.01.2013 07:00 -3,1 C -3,8 C 97 % 0 lf 1007,4 hPa 0,0 l/m 0,00 h 0,0 UV-I 0 W/m 0,3 km/h (0 Bft)
23.01.2013 08:00 -3,1 C -3,8 C 96 % 0 lf 1007,9 hPa 0,0 l/m 0,00 h 0,0 UV-I 8 W/m 0,3 km/h (0 Bft)
23.01.2013 09:00 -3,1 C -3,7 C 95 % 0 lf 1008,2 hPa 0,0 l/m 0,00 h 0,0 UV-I 39 W/m 3,3 km/h (1 Bft)
23.01.2013 10:00 -2,7 C -2,7 C 94 % 0 lf 1008,6 hPa 0,0 l/m 0,00 h 0,0 UV-I 90 W/m 1,5 km/h (1 Bft)
23.01.2013 11:00 -1,9 C -1,7 C 91 % 1 lf 1008,8 hPa 0,0 l/m 0,00 h 0,0 UV-I 139 W/m 2,1 km/h (1 Bft)
23.01.2013 12:00 -1,1 C -0,9 C 88 % 5 lf 1008,8 hPa 0,0 l/m 0,00 h 0,0 UV-I 170 W/m 3,0 km/h (1 Bft)
23.01.2013 13:00 -0,7 C -0,7 C 87 % 2 lf 1008,8 hPa 0,0 l/m 0,00 h 0,0 UV-I 143 W/m 5,2 km/h (1 Bft)
23.01.2013 14:00 -1,1 C -1,6 C 87 % 0 lf 1008,8 hPa 0,0 l/m 0,00 h 0,0 UV-I 101 W/m 6,8 km/h (2 Bft)
23.01.2013 15:00 -1,4 C -2,1 C 88 % 0 lf 1009,0 hPa 0,0 l/m 0,00 h 0,0 UV-I 54 W/m 5,5 km/h (1 Bft)
23.01.2013 16:00 -1,8 C -2,9 C 89 % 0 lf 1009,1 hPa 0,0 l/m 0,00 h 0,0 UV-I 20 W/m 5,2 km/h (1 Bft)
23.01.2013 17:00 -2,3 C -3,6 C 89 % 0 lf 1009,4 hPa 0,0 l/m 0,00 h 0,0 UV-I 5 W/m 1,8 km/h (1 Bft)
23.01.2013 18:00 -2,7 C -4,1 C 90 % 0 lf 1009,4 hPa 0,0 l/m 0,00 h 0,0 UV-I 0 W/m 1,2 km/h (1 Bft)
23.01.2013 19:00 -3,1 C -4,3 C 91 % 0 lf 1009,5 hPa 0,0 l/m 0,00 h 0,0 UV-I 0 W/m 0,4 km/h (0 Bft)
23.01.2013 20:00 -3,0 C -3,8 C 92 % 0 lf 1009,5 hPa 0,0 l/m 0,00 h 0,0 UV-I 0 W/m 0,3 km/h (0 Bft)
23.01.2013 21:00 -2,9 C -3,8 C 91 % 0 lf 1009,8 hPa 0,0 l/m 0,00 h 0,0 UV-I 0 W/m 0,8 km/h (0 Bft)
23.01.2013 22:00 -3,0 C -4,1 C 90 % 0 lf 1010,2 hPa 0,0 l/m 0,00 h 0,0 UV-I 0 W/m 0,9 km/h (0 Bft)
23.01.2013 23:00 -3,2 C -4,3 C 90 % 0 lf 1010,3 hPa 0,0 l/m 0,00 h 0,0 UV-I 0 W/m 0,7 km/h (0 Bft)
24.01.2013 00:00 -3,3 C -4,3 C 90 % 0 lf 1010,3 hPa 0,0 l/m 0,00 h 0,0 UV-I 0 W/m 0,9 km/h (0 Bft)
24.01.2013 01:00 -3,3 C -4,3 C 90 % 0 lf 1010,2 hPa 0,0 l/m 0,00 h 0,0 UV-I 0 W/m 1,9 km/h (1 Bft)
24.01.2013 02:00 -3,5 C -4,3 C 90 % 0 lf 1010,1 hPa 0,0 l/m 0,00 h 0,0 UV-I 0 W/m 0,4 km/h (0 Bft)
24.01.2013 03:00 -3,7 C -4,8 C 89 % 0 lf 1010,3 hPa 0,0 l/m 0,00 h 0,0 UV-I 0 W/m 3,2 km/h (1 Bft)
24.01.2013 04:00 -4,3 C -6,2 C 89 % 0 lf 1010,5 hPa 0,0 l/m 0,00 h 0,0 UV-I 0 W/m 1,0 km/h (0 Bft)
24.01.2013 05:00 -5,5 C -7,1 C 90 % 0 lf 1011,1 hPa 0,0 l/m 0,00 h 0,0 UV-I 0 W/m 1,3 km/h (1 Bft)
24.01.2013 06:00 -5,9 C -7,0 C 92 % 0 lf 1011,8 hPa 0,0 l/m 0,00 h 0,0 UV-I 0 W/m 1,6 km/h (1 Bft)
24.01.2013 07:00 -5,9 C -7,2 C 93 % 0 lf 1012,4 hPa 0,0 l/m 0,00 h 0,0 UV-I 0 W/m 0,6 km/h (0 Bft)
24.01.2013 08:00 -6,1 C -7,2 C 94 % 0 lf 1013,0 hPa 0,0 l/m 0,00 h 0,0 UV-I 15 W/m 1,8 km/h (1 Bft)
24.01.2013 09:00 -5,7 C -5,9 C 95 % 0 lf 1013,7 hPa 0,0 l/m 0,00 h 0,0 UV-I 33 W/m 2,0 km/h (1 Bft)
24.01.2013 10:00 -4,6 C -4,6 C 95 % 0 lf 1014,5 hPa 0,0 l/m 0,00 h 0,0 UV-I 65 W/m 3,5 km/h (1 Bft)
24.01.2013 11:00 -3,6 C -3,3 C 94 % 0 lf 1015,0 hPa 0,0 l/m 0,03 h 0,0 UV-I 107 W/m 3,8 km/h (1 Bft)
24.01.2013 12:00 -2,8 C -2,8 C 91 % 1 lf 1015,0 hPa 0,0 l/m 0,40 h 0,0 UV-I 194 W/m 9,4 km/h (2 Bft)
24.01.2013 13:00 -2,2 C -2,2 C 88 % 0 lf 1014,9 hPa 0,0 l/m 0,27 h 0,0 UV-I 167 W/m 9,2 km/h (2 Bft)
24.01.2013 14:00 -1,8 C -2,1 C 88 % 0 lf 1015,1 hPa 0,0 l/m 0,00 h 0,0 UV-I 101 W/m 8,7 km/h (2 Bft)
24.01.2013 15:00 -1,9 C -2,5 C 88 % 0 lf 1015,7 hPa 0,0 l/m 0,00 h 0,0 UV-I 54 W/m 9,3 km/h (2 Bft)
24.01.2013 16:00 -2,1 C -3,1 C 89 % 0 lf 1016,1 hPa 0,0 l/m 0,00 h 0,0 UV-I 17 W/m 7,0 km/h (2 Bft)
24.01.2013 17:00 -2,3 C -3,4 C 89 % 0 lf 1016,8 hPa 0,0 l/m 0,00 h 0,0 UV-I 0 W/m 8,6 km/h (2 Bft)
24.01.2013 18:00 -2,6 C -3,8 C 90 % 0 lf 1017,3 hPa 0,0 l/m 0,00 h 0,0 UV-I 0 W/m 2,9 km/h (1 Bft)
24.01.2013 19:00 -2,5 C -3,5 C 90 % 0 lf 1017,7 hPa 0,0 l/m 0,00 h 0,0 UV-I 0 W/m 0,2 km/h (0 Bft)
24.01.2013 20:00 -2,3 C -3,2 C 91 % 0 lf 1018,4 hPa 0,0 l/m 0,00 h 0,0 UV-I 0 W/m 2,1 km/h (1 Bft)
24.01.2013 21:00 -2,2 C -3,2 C 92 % 0 lf 1019,0 hPa 0,0 l/m 0,00 h 0,0 UV-I 0 W/m 4,7 km/h (1 Bft)
24.01.2013 22:00 -2,3 C -3,2 C 92 % 0 lf 1019,1 hPa 0,0 l/m 0,00 h 0,0 UV-I 0 W/m 2,6 km/h (1 Bft)
24.01.2013 23:00 -2,4 C -3,2 C 92 % 0 lf 1019,4 hPa 0,0 l/m 0,00 h 0,0 UV-I 0 W/m 3,2 km/h (1 Bft)
25.01.2013 00:00 -2,4 C -3,2 C 93 % 0 lf 1019,3 hPa 0,0 l/m 0,00 h 0,0 UV-I 0 W/m 0,4 km/h (0 Bft)
25.01.2013 01:00 -2,4 C -3,2 C 93 % 0 lf 1019,3 hPa 0,0 l/m 0,00 h 0,0 UV-I 0 W/m 0,8 km/h (0 Bft)
25.01.2013 02:00 -2,4 C -3,2 C 93 % 0 lf 1019,4 hPa 0,0 l/m 0,00 h 0,0 UV-I 0 W/m 1,7 km/h (1 Bft)
25.01.2013 03:00 -2,6 C -3,8 C 93 % 0 lf 1019,6 hPa 0,0 l/m 0,00 h 0,0 UV-I 0 W/m 1,4 km/h (1 Bft)
25.01.2013 04:00 -2,9 C -3,8 C 93 % 0 lf 1019,6 hPa 0,0 l/m 0,00 h 0,0 UV-I 0 W/m 0,9 km/h (0 Bft)
25.01.2013 05:00 -3,0 C -3,8 C 93 % 0 lf 1019,6 hPa 0,0 l/m 0,00 h 0,0 UV-I 0 W/m 0,0 km/h (0 Bft)
25.01.2013 06:00 -2,9 C -3,8 C 93 % 0 lf 1019,5 hPa 0,0 l/m 0,00 h 0,0 UV-I 0 W/m 0,3 km/h (0 Bft)
25.01.2013 07:00 -2,9 C -3,8 C 93 % 0 lf 1019,7 hPa 0,0 l/m 0,00 h 0,0 UV-I 0 W/m 0,0 km/h (0 Bft)
25.01.2013 08:00 -3,0 C -3,8 C 93 % 0 lf 1019,8 hPa 0,0 l/m 0,00 h 0,0 UV-I 9 W/m 0,0 km/h (0 Bft)
25.01.2013 09:00 -2,8 C -3,5 C 94 % 0 lf 1020,0 hPa 0,0 l/m 0,00 h 0,0 UV-I 24 W/m 0,0 km/h (0 Bft)
25.01.2013 10:00 -2,7 C -3,1 C 94 % 0 lf 1020,3 hPa 0,0 l/m 0,00 h 0,0 UV-I 57 W/m 0,9 km/h (0 Bft)
25.01.2013 11:00 -2,5 C -2,8 C 94 % 0 lf 1020,1 hPa 0,0 l/m 0,00 h 0,0 UV-I 66 W/m 0,0 km/h (0 Bft)
25.01.2013 12:00 -2,0 C -2,1 C 94 % 1 lf 1019,6 hPa 0,0 l/m 0,00 h 0,0 UV-I 93 W/m 0,1 km/h (0 Bft)
25.01.2013 13:00 -1,1 C -1,2 C 93 % 6 lf 1019,1 hPa 0,0 l/m 0,00 h 0,0 UV-I 119 W/m 2,4 km/h (1 Bft)
25.01.2013 14:00 -1,0 C -1,5 C 89 % 0 lf 1018,5 hPa 0,0 l/m 0,32 h 0,0 UV-I 154 W/m 7,7 km/h (2 Bft)
25.01.2013 15:00 -1,3 C -2,3 C 89 % 0 lf 1018,1 hPa 0,0 l/m 0,27 h 0,0 UV-I 96 W/m 6,7 km/h (2 Bft)
25.01.2013 16:00 -1,8 C -2,8 C 88 % 0 lf 1017,9 hPa 0,0 l/m 0,00 h 0,0 UV-I 19 W/m 9,7 km/h (2 Bft)
25.01.2013 17:00 -2,3 C -3,2 C 87 % 0 lf 1017,5 hPa 0,0 l/m 0,00 h 0,0 UV-I 0 W/m 9,8 km/h (2 Bft)
25.01.2013 18:00 -2,5 C -3,2 C 89 % 0 lf 1017,0 hPa 0,0 l/m 0,00 h 0,0 UV-I 0 W/m 8,7 km/h (2 Bft)
25.01.2013 19:00 -2,4 C -3,2 C 87 % 0 lf 1016,3 hPa 0,0 l/m 0,00 h 0,0 UV-I 0 W/m 13,1 km/h (3 Bft)
25.01.2013 20:00 -2,5 C -3,7 C 88 % 0 lf 1015,4 hPa 0,0 l/m 0,00 h 0,0 UV-I 0 W/m 18,4 km/h (3 Bft)
25.01.2013 21:00 -2,8 C -3,8 C 87 % 0 lf 1014,4 hPa 0,0 l/m 0,00 h 0,0 UV-I 0 W/m 20,6 km/h (4 Bft)
25.01.2013 22:00 -2,9 C -3,9 C 88 % 0 lf 1013,3 hPa 0,0 l/m 0,00 h 0,0 UV-I 0 W/m 14,2 km/h (3 Bft)
25.01.2013 23:00 -3,2 C -4,7 C 89 % 0 lf 1012,5 hPa 0,0 l/m 0,00 h 0,0 UV-I 0 W/m 14,4 km/h (3 Bft)
26.01.2013 00:00 -3,6 C -4,9 C 89 % 0 lf 1011,8 hPa 0,0 l/m 0,00 h 0,0 UV-I 0 W/m 17,9 km/h (3 Bft)
26.01.2013 01:00 -3,7 C -5,2 C 90 % 0 lf 1011,5 hPa 0,0 l/m 0,00 h 0,0 UV-I 0 W/m 16,7 km/h (3 Bft)
26.01.2013 02:00 -3,7 C -4,9 C 91 % 0 lf 1010,7 hPa 0,0 l/m 0,00 h 0,0 UV-I 0 W/m 21,9 km/h (4 Bft)
26.01.2013 03:00 -3,6 C -4,9 C 91 % 0 lf 1010,5 hPa 0,0 l/m 0,00 h 0,0 UV-I 0 W/m 24,5 km/h (4 Bft)
26.01.2013 04:00 -3,7 C -4,9 C 90 % 0 lf 1010,4 hPa 0,0 l/m 0,00 h 0,0 UV-I 0 W/m 24,6 km/h (4 Bft)
26.01.2013 05:00 -3,8 C -5,2 C 91 % 0 lf 1010,3 hPa 0,0 l/m 0,00 h 0,0 UV-I 0 W/m 23,0 km/h (4 Bft)
26.01.2013 06:00 -3,8 C -5,3 C 91 % 0 lf 1009,7 hPa 0,0 l/m 0,00 h 0,0 UV-I 0 W/m 28,9 km/h (5 Bft)
26.01.2013 07:00 -3,8 C -5,0 C 90 % 0 lf 1009,1 hPa 0,0 l/m 0,00 h 0,0 UV-I 0 W/m 26,5 km/h (4 Bft)
26.01.2013 08:00 -3,9 C -5,2 C 90 % 0 lf 1009,5 hPa 0,0 l/m 0,00 h 0,0 UV-I 13 W/m 27,7 km/h (4 Bft)
26.01.2013 09:00 -3,7 C -4,6 C 89 % 0 lf 1010,2 hPa 0,0 l/m 0,03 h 0,0 UV-I 61 W/m 27,9 km/h (4 Bft)
26.01.2013 10:00 -3,0 C -3,8 C 87 % 0 lf 1010,8 hPa 0,0 l/m 0,57 h 0,0 UV-I 140 W/m 24,5 km/h (4 Bft)
26.01.2013 11:00 -2,3 C -2,5 C 85 % 0 lf 1010,7 hPa 0,0 l/m 0,43 h 0,0 UV-I 168 W/m 27,9 km/h (4 Bft)
26.01.2013 12:00 -2,0 C -2,2 C 85 % 0 lf 1010,1 hPa 0,0 l/m 0,00 h 0,0 UV-I 108 W/m 28,1 km/h (4 Bft)
26.01.2013 13:00 -1,4 C -1,3 C 84 % 0 lf 1009,7 hPa 0,0 l/m 0,00 h 0,0 UV-I 126 W/m 25,3 km/h (4 Bft)
26.01.2013 14:00 -0,9 C -1,2 C 84 % 0 lf 1009,5 hPa 0,0 l/m 0,00 h 0,0 UV-I 67 W/m 14,9 km/h (3 Bft)
26.01.2013 15:00 -0,4 C -1,2 C 85 % 0 lf 1010,2 hPa 0,0 l/m 0,00 h 0,0 UV-I 36 W/m 8,3 km/h (2 Bft)
26.01.2013 16:00 -0,6 C -2,0 C 91 % 3 lf 1010,7 hPa 0,0 l/m 0,00 h 0,0 UV-I 8 W/m 7,0 km/h (2 Bft)
26.01.2013 17:00 -0,8 C -2,0 C 95 % 5 lf 1011,0 hPa 0,0 l/m 0,00 h 0,0 UV-I 0 W/m 4,1 km/h (1 Bft)
26.01.2013 18:00 -0,3 C -1,2 C 96 % 14 lf 1011,5 hPa 0,2 l/m 0,00 h 0,0 UV-I 0 W/m 4,6 km/h (1 Bft)
26.01.2013 19:00 0,1 C -1,0 C 97 % 15 lf 1011,9 hPa 0,0 l/m 0,00 h 0,0 UV-I 0 W/m 5,2 km/h (1 Bft)
26.01.2013 20:00 0,3 C -0,9 C 97 % 15 lf 1012,0 hPa 0,0 l/m 0,00 h 0,0 UV-I 0 W/m 7,4 km/h (2 Bft)
26.01.2013 21:00 0,6 C -0,4 C 97 % 15 lf 1011,9 hPa 0,0 l/m 0,00 h 0,0 UV-I 0 W/m 7,5 km/h (2 Bft)
26.01.2013 22:00 0,8 C -0,4 C 97 % 3 lf 1011,6 hPa 0,0 l/m 0,00 h 0,0 UV-I 0 W/m 8,0 km/h (2 Bft)
26.01.2013 23:00 1,1 C -0,3 C 96 % 0 lf 1011,4 hPa 0,0 l/m 0,00 h 0,0 UV-I 0 W/m 6,3 km/h (2 Bft)
27.01.2013 00:00 1,2 C -0,3 C 95 % 0 lf 1010,7 hPa 0,0 l/m 0,00 h 0,0 UV-I 0 W/m 9,3 km/h (2 Bft)
27.01.2013 01:00 0,9 C -0,4 C 95 % 0 lf 1009,9 hPa 0,0 l/m 0,00 h 0,0 UV-I 0 W/m 7,4 km/h (2 Bft)
27.01.2013 02:00 0,8 C -0,7 C 94 % 0 lf 1009,3 hPa 0,0 l/m 0,00 h 0,0 UV-I 0 W/m 5,2 km/h (1 Bft)
27.01.2013 03:00 0,4 C -1,0 C 94 % 0 lf 1008,3 hPa 0,0 l/m 0,00 h 0,0 UV-I 0 W/m 7,4 km/h (2 Bft)
27.01.2013 04:00 0,5 C -0,6 C 95 % 0 lf 1007,2 hPa 0,0 l/m 0,00 h 0,0 UV-I 0 W/m 11,0 km/h (2 Bft)
27.01.2013 05:00 0,9 C -0,4 C 94 % 0 lf 1006,0 hPa 0,0 l/m 0,00 h 0,0 UV-I 0 W/m 12,4 km/h (3 Bft)
27.01.2013 06:00 1,2 C 0,1 C 93 % 2 lf 1004,5 hPa 0,0 l/m 0,00 h 0,0 UV-I 0 W/m 21,6 km/h (4 Bft)
27.01.2013 07:00 1,4 C 0,1 C 93 % 5 lf 1003,6 hPa 0,0 l/m 0,00 h 0,0 UV-I 0 W/m 17,3 km/h (3 Bft)
27.01.2013 08:00 2,2 C 0,6 C 92 % 9 lf 1002,8 hPa 0,0 l/m 0,00 h 0,0 UV-I 8 W/m 17,8 km/h (3 Bft)
27.01.2013 09:00 2,2 C 0,4 C 92 % 15 lf 1002,0 hPa 0,0 l/m 0,00 h 0,0 UV-I 26 W/m 21,9 km/h (4 Bft)
27.01.2013 10:00 2,3 C 0,5 C 93 % 15 lf 1001,0 hPa 0,2 l/m 0,00 h 0,0 UV-I 45 W/m 16,6 km/h (3 Bft)
27.01.2013 11:00 2,8 C 0,9 C 91 % 10 lf 1000,6 hPa 0,6 l/m 0,00 h 0,0 UV-I 36 W/m 12,7 km/h (3 Bft)
27.01.2013 12:00 3,1 C 1,0 C 93 % 15 lf 1000,5 hPa 0,6 l/m 0,00 h 0,0 UV-I 38 W/m 10,0 km/h (2 Bft)
27.01.2013 13:00 4,3 C 1,8 C 92 % 15 lf 1000,1 hPa 0,4 l/m 0,00 h 0,0 UV-I 44 W/m 19,5 km/h (3 Bft)
27.01.2013 14:00 4,3 C 1,9 C 94 % 15 lf 999,9 hPa 0,4 l/m 0,00 h 0,0 UV-I 38 W/m 15,6 km/h (3 Bft)
27.01.2013 15:00 4,3 C 2,3 C 95 % 14 lf 1000,0 hPa 0,0 l/m 0,00 h 0,0 UV-I 59 W/m 15,8 km/h (3 Bft)
27.01.2013 16:00 4,6 C 2,3 C 94 % 3 lf 1000,5 hPa 0,0 l/m 0,00 h 0,0 UV-I 19 W/m 16,8 km/h (3 Bft)
27.01.2013 17:00 4,7 C 2,3 C 94 % 1 lf 1001,5 hPa 0,0 l/m 0,00 h 0,0 UV-I 0 W/m 11,2 km/h (2 Bft)
27.01.2013 18:00 4,5 C 2,2 C 94 % 0 lf 1002,0 hPa 0,0 l/m 0,00 h 0,0 UV-I 0 W/m 10,0 km/h (2 Bft)
27.01.2013 19:00 4,2 C 2,1 C 95 % 0 lf 1002,2 hPa 0,0 l/m 0,00 h 0,0 UV-I 0 W/m 10,0 km/h (2 Bft)
27.01.2013 20:00 3,7 C 1,8 C 95 % 0 lf 1003,0 hPa 0,0 l/m 0,00 h 0,0 UV-I 0 W/m 9,2 km/h (2 Bft)
27.01.2013 21:00 3,5 C 1,8 C 95 % 0 lf 1003,6 hPa 0,0 l/m 0,00 h 0,0 UV-I 0 W/m 9,8 km/h (2 Bft)
27.01.2013 22:00 3,7 C 2,1 C 94 % 0 lf 1004,2 hPa 0,0 l/m 0,00 h 0,0 UV-I 0 W/m 11,6 km/h (2 Bft)
27.01.2013 23:00 3,6 C 1,8 C 94 % 0 lf 1004,8 hPa 0,0 l/m 0,00 h 0,0 UV-I 0 W/m 6,9 km/h (2 Bft)
Min-Datum _ 24.01.13 24.01.13 26.01.13 22.01.13 21.01.13 - - - - 21.01.13
_ Min-Zeit 08:40 05:36 13:50 16:24 00:10 - - - - 00:00
Minimum _ -6,2 C -7,7 C 83 % 0 lf 994,8 hPa - - - - 0,0 km/h (0 Bft)
Max-Datum _ 27.01.13 27.01.13 22.01.13 21.01.13 25.01.13 21.01.13 22.01.13 21.01.13 24.01.13 26.01.13
_ Max-Zeit 16:32 13:58 07:08 02:22 09:58 07:00 15:12 00:00 12:56 04:12
Maximum _ 4,7 C 2,3 C 100 % 15 lf 1020,3 hPa 2,0 l/m 0,03 h 0,0 UV-I 302 W/m 46,3 km/h
O-SO (6 Bft)
Durchschnitt _ -1,6 C -2,6 C 93 % 3 lf 1008,2 hPa #5,0 l/m #3:01 h 0,0 UV-I 65 W/m 6,1 km/h (2 Bft)
© 2013 W. Hausmann